sensor_id;sensor_type;location;lat;lon;timestamp;pressure;altitude;pressure_sealevel;temperature;humidity
70952;BME280;69214;55.880;37.542;2023-05-16T00:01:26;99474.97;;;11.17;48.90
70952;BME280;69214;55.880;37.542;2023-05-16T00:03:55;99481.84;;;11.20;48.45
70952;BME280;69214;55.880;37.542;2023-05-16T00:06:21;99471.16;;;11.07;49.00
70952;BME280;69214;55.880;37.542;2023-05-16T00:08:48;99476.72;;;11.00;48.54
70952;BME280;69214;55.880;37.542;2023-05-16T00:11:15;99475.84;;;10.88;48.39
70952;BME280;69214;55.880;37.542;2023-05-16T00:13:42;99492.09;;;10.83;49.77
70952;BME280;69214;55.880;37.542;2023-05-16T00:16:09;99479.28;;;10.83;49.52
70952;BME280;69214;55.880;37.542;2023-05-16T00:18:39;99474.41;;;10.85;49.41
70952;BME280;69214;55.880;37.542;2023-05-16T00:21:05;99456.09;;;10.74;49.64
70952;BME280;69214;55.880;37.542;2023-05-16T00:23:31;99472.63;;;10.79;49.09
70952;BME280;69214;55.880;37.542;2023-05-16T00:25:57;99468.19;;;10.66;49.79
70952;BME280;69214;55.880;37.542;2023-05-16T00:28:23;99462.69;;;10.55;49.51
70952;BME280;69214;55.880;37.542;2023-05-16T00:30:48;99470.88;;;10.55;50.03
70952;BME280;69214;55.880;37.542;2023-05-16T00:33:15;99475.28;;;10.56;49.83
70952;BME280;69214;55.880;37.542;2023-05-16T00:35:41;99474.91;;;10.52;49.84
70952;BME280;69214;55.880;37.542;2023-05-16T00:38:10;99457.56;;;10.47;49.73
70952;BME280;69214;55.880;37.542;2023-05-16T00:40:36;99474.91;;;10.52;50.04
70952;BME280;69214;55.880;37.542;2023-05-16T00:43:02;99465.03;;;10.51;49.66
70952;BME280;69214;55.880;37.542;2023-05-16T00:45:28;99466.47;;;10.54;49.83
70952;BME280;69214;55.880;37.542;2023-05-16T00:47:55;99464.13;;;10.57;49.47
70952;BME280;69214;55.880;37.542;2023-05-16T00:50:21;99449.28;;;10.53;49.52
70952;BME280;69214;55.880;37.542;2023-05-16T00:52:47;99463.78;;;10.65;48.96
70952;BME280;69214;55.880;37.542;2023-05-16T00:55:13;99458.94;;;10.67;49.58
70952;BME280;69214;55.880;37.542;2023-05-16T00:57:40;99454.53;;;10.66;49.59
70952;BME280;69214;55.880;37.542;2023-05-16T01:00:07;99451.44;;;10.63;48.69
70952;BME280;69214;55.880;37.542;2023-05-16T01:02:36;99454.63;;;10.60;49.01
70952;BME280;69214;55.880;37.542;2023-05-16T01:05:04;99449.03;;;10.55;49.50
70952;BME280;69214;55.880;37.542;2023-05-16T01:07:30;99448.22;;;10.54;49.07
70952;BME280;69214;55.880;37.542;2023-05-16T01:09:57;99449.03;;;10.55;49.70
70952;BME280;69214;55.880;37.542;2023-05-16T01:12:30;99455.47;;;10.60;47.82
70952;BME280;69214;55.880;37.542;2023-05-16T01:15:29;99452.94;;;10.47;48.31
70952;BME280;69214;55.880;37.542;2023-05-16T01:21:03;99449.81;;;10.32;50.24
70952;BME280;69214;55.880;37.542;2023-05-16T01:24:01;99472.47;;;10.32;55.42
70952;BME280;69214;55.880;37.542;2023-05-16T01:26:28;99458.78;;;10.21;52.99
70952;BME280;69214;55.880;37.542;2023-05-16T01:28:55;99473.91;;;10.17;56.04
70952;BME280;69214;55.880;37.542;2023-05-16T01:31:22;99476.09;;;10.08;55.81
70952;BME280;69214;55.880;37.542;2023-05-16T01:33:50;99475.81;;;9.98;56.07
70952;BME280;69214;55.880;37.542;2023-05-16T01:36:24;99468.38;;;9.87;55.28
70952;BME280;69214;55.880;37.542;2023-05-16T01:44:29;99476.09;;;9.71;53.58
70952;BME280;69214;55.880;37.542;2023-05-16T01:46:58;99476.25;;;9.77;55.30
70952;BME280;69214;55.880;37.542;2023-05-16T01:49:50;99476.25;;;9.77;54.03
70952;BME280;69214;55.880;37.542;2023-05-16T01:52:45;99465.88;;;9.67;52.00
70952;BME280;69214;55.880;37.542;2023-05-16T01:55:14;99472.69;;;9.76;52.18
70952;BME280;69214;55.880;37.542;2023-05-16T01:57:41;99473.06;;;9.80;54.66
70952;BME280;69214;55.880;37.542;2023-05-16T02:00:09;99476.34;;;9.88;52.72
70952;BME280;69214;55.880;37.542;2023-05-16T02:02:40;99476.25;;;9.95;51.61
70952;BME280;69214;55.880;37.542;2023-05-16T02:05:07;99479.22;;;10.12;53.70
70952;BME280;69214;55.880;37.542;2023-05-16T02:07:33;99473.25;;;10.21;52.74
70952;BME280;69214;55.880;37.542;2023-05-16T02:09:59;99472.00;;;10.35;52.35
70952;BME280;69214;55.880;37.542;2023-05-16T02:12:25;99466.56;;;10.47;52.03
70952;BME280;69214;55.880;37.542;2023-05-16T02:14:51;99477.44;;;10.65;49.44
70952;BME280;69214;55.880;37.542;2023-05-16T02:17:17;99475.81;;;10.76;50.20
70952;BME280;69214;55.880;37.542;2023-05-16T02:19:43;99480.09;;;10.84;51.79
70952;BME280;69214;55.880;37.542;2023-05-16T02:22:11;99476.22;;;10.91;52.05
70952;BME280;69214;55.880;37.542;2023-05-16T02:24:37;99475.75;;;10.94;52.47
70952;BME280;69214;55.880;37.542;2023-05-16T02:27:03;99490.72;;;11.03;51.55
70952;BME280;69214;55.880;37.542;2023-05-16T02:29:29;99481.22;;;11.06;52.18
70952;BME280;69214;55.880;37.542;2023-05-16T02:31:55;99486.72;;;11.18;52.88
70952;BME280;69214;55.880;37.542;2023-05-16T02:34:21;99498.38;;;11.25;50.08
70952;BME280;69214;55.880;37.542;2023-05-16T02:36:47;99456.41;;;11.08;53.16
70952;BME280;69214;55.880;37.542;2023-05-16T02:39:13;99474.84;;;11.24;51.94
70952;BME280;69214;55.880;37.542;2023-05-16T02:41:39;99477.22;;;11.32;52.02
70952;BME280;69214;55.880;37.542;2023-05-16T02:44:05;99492.09;;;11.48;51.63
70952;BME280;69214;55.880;37.542;2023-05-16T02:46:33;99491.97;;;11.54;50.91
70952;BME280;69214;55.880;37.542;2023-05-16T02:48:59;99485.69;;;12.00;51.69
70952;BME280;69214;55.880;37.542;2023-05-16T02:51:27;99470.91;;;12.98;49.10
70952;BME280;69214;55.880;37.542;2023-05-16T02:53:54;99488.25;;;14.48;45.82
70952;BME280;69214;55.880;37.542;2023-05-16T02:56:24;99482.94;;;15.92;43.07
70952;BME280;69214;55.880;37.542;2023-05-16T02:58:52;99474.56;;;17.06;40.99
70952;BME280;69214;55.880;37.542;2023-05-16T03:01:18;99480.38;;;17.76;39.93
70952;BME280;69214;55.880;37.542;2023-05-16T03:03:44;99476.78;;;17.50;40.21
70952;BME280;69214;55.880;37.542;2023-05-16T03:06:10;99459.81;;;16.60;41.52
70952;BME280;69214;55.880;37.542;2023-05-16T03:08:37;99481.00;;;15.92;42.98
70952;BME280;69214;55.880;37.542;2023-05-16T03:11:03;99481.78;;;15.82;43.23
70952;BME280;69214;55.880;37.542;2023-05-16T03:13:29;99467.34;;;16.85;41.90
70952;BME280;69214;55.880;37.542;2023-05-16T03:15:59;99477.50;;;18.22;39.49
70952;BME280;69214;55.880;37.542;2023-05-16T03:18:25;99451.47;;;19.26;37.49
70952;BME280;69214;55.880;37.542;2023-05-16T03:20:51;99470.94;;;20.32;36.22
70952;BME280;69214;55.880;37.542;2023-05-16T03:23:23;99468.69;;;21.33;34.72
70952;BME280;69214;55.880;37.542;2023-05-16T03:25:49;99449.66;;;22.05;33.32
70952;BME280;69214;55.880;37.542;2023-05-16T03:28:15;99483.09;;;22.96;32.50
70952;BME280;69214;55.880;37.542;2023-05-16T03:30:42;99474.56;;;23.73;31.34
70952;BME280;69214;55.880;37.542;2023-05-16T03:33:18;99474.91;;;24.42;30.23
70952;BME280;69214;55.880;37.542;2023-05-16T03:35:44;99484.75;;;25.05;29.76
70952;BME280;69214;55.880;37.542;2023-05-16T03:38:11;99481.66;;;25.67;29.14
70952;BME280;69214;55.880;37.542;2023-05-16T03:40:37;99474.53;;;26.25;28.32
70952;BME280;69214;55.880;37.542;2023-05-16T03:43:03;99475.53;;;26.88;27.50
70952;BME280;69214;55.880;37.542;2023-05-16T03:45:29;99469.41;;;27.57;27.01
70952;BME280;69214;55.880;37.542;2023-05-16T03:47:59;99469.16;;;28.41;27.51
70952;BME280;69214;55.880;37.542;2023-05-16T03:50:30;99454.59;;;29.12;25.32
70952;BME280;69214;55.880;37.542;2023-05-16T03:52:57;99458.84;;;29.74;24.01
70952;BME280;69214;55.880;37.542;2023-05-16T03:55:22;99486.34;;;30.55;23.48
70952;BME280;69214;55.880;37.542;2023-05-16T03:57:48;99482.75;;;31.25;23.01
70952;BME280;69214;55.880;37.542;2023-05-16T04:00:16;99478.22;;;31.98;22.07
70952;BME280;69214;55.880;37.542;2023-05-16T04:02:42;99486.38;;;32.71;21.64
70952;BME280;69214;55.880;37.542;2023-05-16T04:05:09;99491.75;;;33.29;21.91
70952;BME280;69214;55.880;37.542;2023-05-16T04:07:36;99490.63;;;33.67;21.00
70952;BME280;69214;55.880;37.542;2023-05-16T04:10:03;99487.00;;;34.04;20.31
70952;BME280;69214;55.880;37.542;2023-05-16T04:12:32;99489.88;;;34.07;20.06
70952;BME280;69214;55.880;37.542;2023-05-16T04:14:58;99486.56;;;34.39;19.87
70952;BME280;69214;55.880;37.542;2023-05-16T04:17:24;99486.25;;;34.99;19.70
70952;BME280;69214;55.880;37.542;2023-05-16T04:19:50;99484.06;;;35.36;18.86
70952;BME280;69214;55.880;37.542;2023-05-16T04:22:16;99482.44;;;35.35;18.91
70952;BME280;69214;55.880;37.542;2023-05-16T04:24:42;99487.66;;;35.30;19.20
70952;BME280;69214;55.880;37.542;2023-05-16T04:27:07;99506.56;;;35.08;19.21
70952;BME280;69214;55.880;37.542;2023-05-16T04:29:34;99499.44;;;34.77;19.50
70952;BME280;69214;55.880;37.542;2023-05-16T04:32:00;99513.59;;;34.73;19.45
70952;BME280;69214;55.880;37.542;2023-05-16T04:34:27;99503.69;;;34.50;19.76
70952;BME280;69214;55.880;37.542;2023-05-16T04:36:54;99509.31;;;34.46;19.49
70952;BME280;69214;55.880;37.542;2023-05-16T04:39:20;99496.09;;;34.20;19.65
70952;BME280;69214;55.880;37.542;2023-05-16T04:41:46;99515.56;;;33.88;19.65
70952;BME280;69214;55.880;37.542;2023-05-16T04:44:12;99514.06;;;33.68;19.89
70952;BME280;69214;55.880;37.542;2023-05-16T04:46:38;99500.53;;;33.51;20.19
70952;BME280;69214;55.880;37.542;2023-05-16T04:49:04;99521.28;;;33.92;20.47
70952;BME280;69214;55.880;37.542;2023-05-16T04:51:30;99516.81;;;34.72;19.52
70952;BME280;69214;55.880;37.542;2023-05-16T04:53:58;99523.66;;;35.19;18.64
70952;BME280;69214;55.880;37.542;2023-05-16T04:56:25;99521.69;;;35.26;18.63
70952;BME280;69214;55.880;37.542;2023-05-16T04:58:52;99523.44;;;35.45;18.24
70952;BME280;69214;55.880;37.542;2023-05-16T05:01:19;99522.75;;;35.69;17.80
70952;BME280;69214;55.880;37.542;2023-05-16T05:03:46;99511.09;;;35.96;17.48
70952;BME280;69214;55.880;37.542;2023-05-16T05:06:12;99537.63;;;36.82;17.12
70952;BME280;69214;55.880;37.542;2023-05-16T05:08:37;99538.41;;;37.21;16.62
70952;BME280;69214;55.880;37.542;2023-05-16T05:11:03;99536.78;;;36.67;16.40
70952;BME280;69214;55.880;37.542;2023-05-16T05:13:32;99539.59;;;36.24;16.17
70952;BME280;69214;55.880;37.542;2023-05-16T05:15:58;99532.47;;;35.65;16.23
70952;BME280;69214;55.880;37.542;2023-05-16T05:18:24;99520.16;;;35.36;16.43
70952;BME280;69214;55.880;37.542;2023-05-16T05:20:49;99535.22;;;35.51;16.40
70952;BME280;69214;55.880;37.542;2023-05-16T05:23:17;99545.22;;;35.30;16.57
70952;BME280;69214;55.880;37.542;2023-05-16T05:25:43;99527.72;;;35.18;16.09
70952;BME280;69214;55.880;37.542;2023-05-16T05:28:08;99543.13;;;35.82;16.31
70952;BME280;69214;55.880;37.542;2023-05-16T05:30:34;99543.69;;;36.70;15.92
70952;BME280;69214;55.880;37.542;2023-05-16T05:33:00;99537.22;;;36.94;15.27
70952;BME280;69214;55.880;37.542;2023-05-16T05:35:26;99549.41;;;37.23;15.16
70952;BME280;69214;55.880;37.542;2023-05-16T05:37:52;99533.97;;;37.03;15.57
70952;BME280;69214;55.880;37.542;2023-05-16T05:40:17;99540.44;;;37.14;14.91
70952;BME280;69214;55.880;37.542;2023-05-16T05:42:43;99537.59;;;37.10;14.86
70952;BME280;69214;55.880;37.542;2023-05-16T05:45:09;99544.81;;;37.61;15.14
70952;BME280;69214;55.880;37.542;2023-05-16T05:47:36;99540.41;;;38.40;14.88
70952;BME280;69214;55.880;37.542;2023-05-16T05:50:02;99544.28;;;39.16;15.20
70952;BME280;69214;55.880;37.542;2023-05-16T05:52:31;99546.88;;;39.78;13.99
70952;BME280;69214;55.880;37.542;2023-05-16T05:54:57;99546.03;;;40.12;13.74
70952;BME280;69214;55.880;37.542;2023-05-16T05:57:24;99545.75;;;40.60;13.73
70952;BME280;69214;55.880;37.542;2023-05-16T05:59:50;99544.13;;;41.33;13.06
70952;BME280;69214;55.880;37.542;2023-05-16T06:02:16;99553.31;;;41.64;13.02
70952;BME280;69214;55.880;37.542;2023-05-16T06:04:42;99554.97;;;40.71;12.75
70952;BME280;69214;55.880;37.542;2023-05-16T06:07:07;99551.63;;;40.23;13.61
70952;BME280;69214;55.880;37.542;2023-05-16T06:09:33;99543.88;;;40.50;13.48
70952;BME280;69214;55.880;37.542;2023-05-16T06:11:59;99555.56;;;41.33;13.26
70952;BME280;69214;55.880;37.542;2023-05-16T06:14:25;99553.41;;;42.36;12.26
70952;BME280;69214;55.880;37.542;2023-05-16T06:16:51;99564.06;;;43.20;12.00
70952;BME280;69214;55.880;37.542;2023-05-16T06:19:16;99578.19;;;43.89;12.06
70952;BME280;69214;55.880;37.542;2023-05-16T06:21:42;99563.78;;;44.31;11.50
70952;BME280;69214;55.880;37.542;2023-05-16T06:24:09;99565.75;;;44.34;11.90
70952;BME280;69214;55.880;37.542;2023-05-16T06:26:36;99570.22;;;43.51;11.99
70952;BME280;69214;55.880;37.542;2023-05-16T06:29:02;99563.59;;;43.22;12.04
70952;BME280;69214;55.880;37.542;2023-05-16T06:31:28;99561.13;;;43.53;11.83
70952;BME280;69214;55.880;37.542;2023-05-16T06:33:54;99566.50;;;43.67;11.83
70952;BME280;69214;55.880;37.542;2023-05-16T06:36:20;99570.19;;;43.68;11.79
70952;BME280;69214;55.880;37.542;2023-05-16T06:38:45;99559.53;;;43.52;11.62
70952;BME280;69214;55.880;37.542;2023-05-16T06:41:11;99562.50;;;43.48;11.86
70952;BME280;69214;55.880;37.542;2023-05-16T06:43:37;99561.13;;;42.91;12.22
70952;BME280;69214;55.880;37.542;2023-05-16T06:46:03;99563.13;;;41.23;12.78
70952;BME280;69214;55.880;37.542;2023-05-16T06:48:28;99561.41;;;39.95;13.59
70952;BME280;69214;55.880;37.542;2023-05-16T06:50:54;99556.56;;;38.61;15.04
70952;BME280;69214;55.880;37.542;2023-05-16T06:53:20;99560.16;;;38.72;14.49
70952;BME280;69214;55.880;37.542;2023-05-16T06:55:46;99553.78;;;39.02;14.73
70952;BME280;69214;55.880;37.542;2023-05-16T06:58:12;99549.31;;;39.01;14.57
70952;BME280;69214;55.880;37.542;2023-05-16T07:00:38;99555.31;;;39.14;14.16
70952;BME280;69214;55.880;37.542;2023-05-16T07:03:04;99558.91;;;38.77;14.39
70952;BME280;69214;55.880;37.542;2023-05-16T07:05:29;99530.97;;;37.63;15.44
70952;BME280;69214;55.880;37.542;2023-05-16T07:07:56;99541.13;;;38.51;15.60
70952;BME280;69214;55.880;37.542;2023-05-16T07:10:21;99552.97;;;39.80;13.34
70952;BME280;69214;55.880;37.542;2023-05-16T07:12:47;99545.03;;;39.24;13.68
70952;BME280;69214;55.880;37.542;2023-05-16T07:15:13;99552.09;;;38.60;13.99
70952;BME280;69214;55.880;37.542;2023-05-16T07:17:39;99558.28;;;37.46;14.72
70952;BME280;69214;55.880;37.542;2023-05-16T07:20:06;99544.91;;;36.37;15.44
70952;BME280;69214;55.880;37.542;2023-05-16T07:22:33;99530.22;;;36.10;15.61
70952;BME280;69214;55.880;37.542;2023-05-16T07:24:58;99553.44;;;36.37;15.55
70952;BME280;69214;55.880;37.542;2023-05-16T07:27:26;99552.25;;;36.87;15.60
70952;BME280;69214;55.880;37.542;2023-05-16T07:29:52;99542.03;;;37.47;14.92
70952;BME280;69214;55.880;37.542;2023-05-16T07:32:18;99545.91;;;37.99;13.78
70952;BME280;69214;55.880;37.542;2023-05-16T07:34:45;99549.47;;;38.21;14.15
70952;BME280;69214;55.880;37.542;2023-05-16T07:37:11;99534.34;;;37.12;14.36
70952;BME280;69214;55.880;37.542;2023-05-16T07:39:41;99541.25;;;36.68;16.08
70952;BME280;69214;55.880;37.542;2023-05-16T07:42:07;99540.44;;;36.53;14.88
70952;BME280;69214;55.880;37.542;2023-05-16T07:44:34;99534.91;;;35.70;14.92
70952;BME280;69214;55.880;37.542;2023-05-16T07:47:01;99528.47;;;35.11;15.49
70952;BME280;69214;55.880;37.542;2023-05-16T07:49:27;99540.22;;;35.79;14.89
70952;BME280;69214;55.880;37.542;2023-05-16T07:51:54;99543.50;;;35.81;14.49
70952;BME280;69214;55.880;37.542;2023-05-16T07:54:20;99533.88;;;35.30;14.42
70952;BME280;69214;55.880;37.542;2023-05-16T07:56:46;99546.16;;;35.45;15.08
70952;BME280;69214;55.880;37.542;2023-05-16T07:59:12;99542.63;;;35.04;14.67
70952;BME280;69214;55.880;37.542;2023-05-16T08:01:38;99532.63;;;34.73;15.42
70952;BME280;69214;55.880;37.542;2023-05-16T08:04:05;99508.72;;;35.25;14.18
70952;BME280;69214;55.880;37.542;2023-05-16T08:06:31;99521.25;;;34.69;14.72
70952;BME280;69214;55.880;37.542;2023-05-16T08:08:59;99542.94;;;34.10;15.82
70952;BME280;69214;55.880;37.542;2023-05-16T08:11:25;99547.56;;;33.62;16.00
70952;BME280;69214;55.880;37.542;2023-05-16T08:13:51;99532.56;;;33.88;15.21
70952;BME280;69214;55.880;37.542;2023-05-16T08:16:17;99542.81;;;33.70;15.13
70952;BME280;69214;55.880;37.542;2023-05-16T08:18:43;99535.06;;;31.77;17.22
70952;BME280;69214;55.880;37.542;2023-05-16T08:21:09;99543.72;;;29.11;18.34
70952;BME280;69214;55.880;37.542;2023-05-16T08:23:35;99539.66;;;26.81;19.58
70952;BME280;69214;55.880;37.542;2023-05-16T08:26:01;99535.72;;;24.63;21.90
70952;BME280;69214;55.880;37.542;2023-05-16T08:28:28;99530.25;;;23.15;22.44
70952;BME280;69214;55.880;37.542;2023-05-16T08:30:54;99527.53;;;22.00;24.80
70952;BME280;69214;55.880;37.542;2023-05-16T08:33:21;99508.97;;;21.12;25.52
70952;BME280;69214;55.880;37.542;2023-05-16T08:35:47;99536.19;;;20.72;26.15
70952;BME280;69214;55.880;37.542;2023-05-16T08:38:14;99536.09;;;20.29;26.43
70952;BME280;69214;55.880;37.542;2023-05-16T08:40:39;99536.66;;;20.02;26.13
70952;BME280;69214;55.880;37.542;2023-05-16T08:43:06;99544.97;;;19.73;25.83
70952;BME280;69214;55.880;37.542;2023-05-16T08:45:32;99538.09;;;19.27;26.01
70952;BME280;69214;55.880;37.542;2023-05-16T08:48:00;99538.81;;;18.98;25.58
70952;BME280;69214;55.880;37.542;2023-05-16T08:50:30;99529.03;;;18.62;26.37
70952;BME280;69214;55.880;37.542;2023-05-16T08:52:56;99542.06;;;18.41;28.25
70952;BME280;69214;55.880;37.542;2023-05-16T08:55:23;99539.38;;;18.21;26.51
70952;BME280;69214;55.880;37.542;2023-05-16T08:57:51;99532.22;;;17.99;27.19
70952;BME280;69214;55.880;37.542;2023-05-16T09:00:19;99500.53;;;17.71;28.62
70952;BME280;69214;55.880;37.542;2023-05-16T09:02:47;99525.63;;;17.80;28.34
70952;BME280;69214;55.880;37.542;2023-05-16T09:05:14;99531.44;;;17.73;29.73
70952;BME280;69214;55.880;37.542;2023-05-16T09:07:41;99538.59;;;17.64;29.71
70952;BME280;69214;55.880;37.542;2023-05-16T09:10:08;99533.88;;;17.55;29.45
70952;BME280;69214;55.880;37.542;2023-05-16T09:12:35;99533.34;;;17.47;29.48
70952;BME280;69214;55.880;37.542;2023-05-16T09:15:02;99526.16;;;17.46;29.16
70952;BME280;69214;55.880;37.542;2023-05-16T09:17:42;99533.34;;;17.47;27.89
70952;BME280;69214;55.880;37.542;2023-05-16T09:20:18;99524.50;;;17.51;28.66
70952;BME280;69214;55.880;37.542;2023-05-16T09:22:58;99534.44;;;17.57;27.46
70952;BME280;69214;55.880;37.542;2023-05-16T09:25:28;99522.84;;;17.49;28.79
70952;BME280;69214;55.880;37.542;2023-05-16T09:27:56;99513.47;;;17.51;29.33
70952;BME280;69214;55.880;37.542;2023-05-16T09:30:27;99511.81;;;17.49;28.27
70952;BME280;69214;55.880;37.542;2023-05-16T09:32:54;99520.66;;;17.52;29.51
70952;BME280;69214;55.880;37.542;2023-05-16T09:35:21;99516.78;;;17.47;29.54
70952;BME280;69214;55.880;37.542;2023-05-16T09:37:47;99497.47;;;17.42;29.31
70952;BME280;69214;55.880;37.542;2023-05-16T09:40:14;99510.72;;;17.51;28.96
70952;BME280;69214;55.880;37.542;2023-05-16T09:42:42;99510.44;;;17.52;28.65
70952;BME280;69214;55.880;37.542;2023-05-16T09:45:12;99489.75;;;17.55;29.55
70952;BME280;69214;55.880;37.542;2023-05-16T09:47:40;99495.53;;;17.53;30.04
70952;BME280;69214;55.880;37.542;2023-05-16T09:50:15;99499.13;;;17.64;28.61
70952;BME280;69214;55.880;37.542;2023-05-16T09:52:42;99496.63;;;17.62;29.80
70952;BME280;69214;55.880;37.542;2023-05-16T09:55:09;99500.50;;;17.61;29.43
70952;BME280;69214;55.880;37.542;2023-05-16T09:57:37;99495.84;;;17.72;29.12
70952;BME280;69214;55.880;37.542;2023-05-16T10:00:06;99472.94;;;17.71;30.13
70952;BME280;69214;55.880;37.542;2023-05-16T10:02:36;99483.13;;;17.81;29.89
70952;BME280;69214;55.880;37.542;2023-05-16T10:05:04;99488.09;;;17.79;29.78
70952;BME280;69214;55.880;37.542;2023-05-16T10:07:33;99469.31;;;17.81;30.56
70952;BME280;69214;55.880;37.542;2023-05-16T10:10:05;99469.84;;;17.93;29.70
70952;BME280;69214;55.880;37.542;2023-05-16T10:12:33;99486.94;;;18.05;29.47
70952;BME280;69214;55.880;37.542;2023-05-16T10:15:04;99476.69;;;18.11;29.61
70952;BME280;69214;55.880;37.542;2023-05-16T10:17:35;99471.97;;;18.17;29.64
70952;BME280;69214;55.880;37.542;2023-05-16T10:20:06;99461.47;;;18.19;29.96
70952;BME280;69214;55.880;37.542;2023-05-16T10:22:34;99467.81;;;18.24;29.45
70952;BME280;69214;55.880;37.542;2023-05-16T10:27:36;99442.94;;;18.24;30.33
70952;BME280;69214;55.880;37.542;2023-05-16T10:30:05;99474.97;;;18.35;29.52
70952;BME280;69214;55.880;37.542;2023-05-16T10:32:35;99457.28;;;18.31;29.60
70952;BME280;69214;55.880;37.542;2023-05-16T10:35:02;99449.00;;;18.31;29.58
70952;BME280;69214;55.880;37.542;2023-05-16T10:37:31;99452.31;;;18.33;30.40
70952;BME280;69214;55.880;37.542;2023-05-16T10:39:59;99466.97;;;18.29;30.34
70952;BME280;69214;55.880;37.542;2023-05-16T10:42:25;99454.53;;;18.31;30.72
70952;BME280;69214;55.880;37.542;2023-05-16T10:45:08;99442.66;;;18.31;30.31
70952;BME280;69214;55.880;37.542;2023-05-16T10:47:34;99433.84;;;18.24;30.97
70952;BME280;69214;55.880;37.542;2023-05-16T10:50:00;99445.94;;;18.38;30.98
70952;BME280;69214;55.880;37.542;2023-05-16T10:52:32;99443.72;;;18.40;30.08
70952;BME280;69214;55.880;37.542;2023-05-16T10:55:01;99454.47;;;18.47;29.63
70952;BME280;69214;55.880;37.542;2023-05-16T10:57:32;99434.81;;;18.53;30.33
70952;BME280;69214;55.880;37.542;2023-05-16T10:59:58;99443.34;;;18.57;30.50
70952;BME280;69214;55.880;37.542;2023-05-16T11:02:28;99425.47;;;18.44;29.51
70952;BME280;69214;55.880;37.542;2023-05-16T11:04:59;99430.09;;;18.54;30.49
70952;BME280;69214;55.880;37.542;2023-05-16T11:07:34;99405.84;;;18.45;30.00
70952;BME280;69214;55.880;37.542;2023-05-16T11:10:05;99425.69;;;18.53;31.13
70952;BME280;69214;55.880;37.542;2023-05-16T11:12:47;99442.78;;;18.65;29.77
70952;BME280;69214;55.880;37.542;2023-05-16T11:17:46;99418.66;;;18.75;31.21
70952;BME280;69214;55.880;37.542;2023-05-16T11:20:35;99417.78;;;18.85;29.84
70952;BME280;69214;55.880;37.542;2023-05-16T11:25:44;99432.94;;;18.93;30.20
70952;BME280;69214;55.880;37.542;2023-05-16T11:28:12;99427.72;;;18.86;30.50
70952;BME280;69214;55.880;37.542;2023-05-16T11:30:50;99415.03;;;18.80;29.94
70952;BME280;69214;55.880;37.542;2023-05-16T11:33:17;99406.75;;;18.80;31.41
70952;BME280;69214;55.880;37.542;2023-05-16T11:36:07;99419.97;;;18.88;30.52
70952;BME280;69214;55.880;37.542;2023-05-16T11:38:32;99407.78;;;18.89;31.04
70952;BME280;69214;55.880;37.542;2023-05-16T11:41:06;99390.41;;;18.84;30.06
70952;BME280;69214;55.880;37.542;2023-05-16T11:43:43;99404.19;;;18.89;30.55
70952;BME280;69214;55.880;37.542;2023-05-16T11:46:14;99403.06;;;18.95;30.61
70952;BME280;69214;55.880;37.542;2023-05-16T11:48:40;99406.59;;;19.00;30.90
70952;BME280;69214;55.880;37.542;2023-05-16T11:51:08;99397.44;;;19.05;30.86
70952;BME280;69214;55.880;37.542;2023-05-16T11:53:34;99380.63;;;18.96;31.16
70952;BME280;69214;55.880;37.542;2023-05-16T11:56:02;99399.03;;;19.11;31.78
70952;BME280;69214;55.880;37.542;2023-05-16T11:58:29;99402.03;;;19.20;31.54
70952;BME280;69214;55.880;37.542;2023-05-16T12:00:55;99400.03;;;19.25;31.58
70952;BME280;69214;55.880;37.542;2023-05-16T12:03:21;99401.34;;;19.33;30.90
70952;BME280;69214;55.880;37.542;2023-05-16T12:05:50;99389.75;;;19.31;31.15
70952;BME280;69214;55.880;37.542;2023-05-16T12:08:16;99400.97;;;19.45;31.40
70952;BME280;69214;55.880;37.542;2023-05-16T12:10:42;99402.25;;;19.57;30.91
70952;BME280;69214;55.880;37.542;2023-05-16T12:13:08;99403.59;;;19.60;30.90
70952;BME280;69214;55.880;37.542;2023-05-16T12:15:34;99396.25;;;19.74;30.79
70952;BME280;69214;55.880;37.542;2023-05-16T12:18:00;99388.53;;;19.71;30.72
70952;BME280;69214;55.880;37.542;2023-05-16T12:20:27;99398.44;;;19.77;30.37
70952;BME280;69214;55.880;37.542;2023-05-16T12:22:56;99404.22;;;19.81;30.15
70952;BME280;69214;55.880;37.542;2023-05-16T12:25:31;99393.59;;;19.64;29.88
70952;BME280;69214;55.880;37.542;2023-05-16T12:27:59;99399.47;;;19.57;30.57
70952;BME280;69214;55.880;37.542;2023-05-16T12:30:27;99400.06;;;19.54;31.00
70952;BME280;69214;55.880;37.542;2023-05-16T12:33:01;99398.06;;;19.60;30.13
70952;BME280;69214;55.880;37.542;2023-05-16T12:35:32;99384.28;;;19.55;30.84
70952;BME280;69214;55.880;37.542;2023-05-16T12:37:59;99385.25;;;19.69;31.09
70952;BME280;69214;55.880;37.542;2023-05-16T12:40:28;99404.75;;;19.83;30.64
70952;BME280;69214;55.880;37.542;2023-05-16T12:42:54;99383.47;;;19.78;31.14
70952;BME280;69214;55.880;37.542;2023-05-16T12:45:21;99378.53;;;19.75;30.99
70952;BME280;69214;55.880;37.542;2023-05-16T12:47:48;99396.19;;;19.79;31.24
70952;BME280;69214;55.880;37.542;2023-05-16T12:50:15;99381.81;;;19.77;31.20
70952;BME280;69214;55.880;37.542;2023-05-16T12:52:53;99397.25;;;19.83;30.16
70952;BME280;69214;55.880;37.542;2023-05-16T12:55:21;99375.47;;;19.77;30.78
70952;BME280;69214;55.880;37.542;2023-05-16T12:57:48;99388.66;;;19.85;31.08
70952;BME280;69214;55.880;37.542;2023-05-16T13:00:17;99397.78;;;19.85;30.38
70952;BME280;69214;55.880;37.542;2023-05-16T13:02:48;99385.41;;;19.78;31.14
70952;BME280;69214;55.880;37.542;2023-05-16T13:05:14;99372.56;;;19.87;31.99
70952;BME280;69214;55.880;37.542;2023-05-16T13:07:40;99377.88;;;20.07;31.10
70952;BME280;69214;55.880;37.542;2023-05-16T13:10:07;99375.78;;;20.18;31.12